Online Now
Guests 0
Members   0

24/7 FSX Server
IP: 71.135.74.145
@ PHTO until 7/26/19



Information and tools for flight simulation use only - NOT for real avaition

File Flight Plans Here

PHTO 230853Z AUTO 00000KT 10SM FEW028 OVC060 23/21 A3007 RMK AO2 SLP179 T02330211 50007 TSNOPHTO 230833Z 2306/2406 24006KT P6SM VCSH SCT025 OVC050 FM232000 09009KT P6SM SCT025 BKN050
Aviation Digital Data Service (ADDS)



Other FSX servers